Time,TemperatureF,DewpointF,PressureIn,WindDirection,WindDirectionDegrees,WindSpeedMPH,WindSpeedGustMPH,Humidity,HourlyPrecipIn,Conditions,Clouds,dailyrainin,SolarRadiationWatts/m^2,SoftwareType,DateUTC
2013-12-24 00:00:00,11.0,9.0,-100.00,WSW,247,7.0,-999.0,88,-99.99,,,-99.99,0.000000,,2013-12-24 05:00:00,
2013-12-24 00:43:00,11.0,9.0,-100.00,WSW,247,7.0,-999.0,88,-99.99,,,-99.99,0.000000,,2013-12-24 05:43:00,
2013-12-24 00:52:00,11.0,9.0,-100.00,WSW,247,7.0,-999.0,88,-99.99,,,-99.99,0.000000,,2013-12-24 05:52:00,
2013-12-24 01:00:00,11.0,8.0,-100.00,SW,225,7.0,-999.0,87,-99.99,,,-99.99,0.000000,,2013-12-24 06:00:00,
2013-12-24 01:42:00,11.0,8.0,-100.00,SW,225,7.0,-999.0,87,-99.99,,,-99.99,0.000000,,2013-12-24 06:42:00,
2013-12-24 01:52:00,11.0,8.0,-100.00,SW,225,7.0,-999.0,87,-99.99,,,-99.99,0.000000,,2013-12-24 06:52:00,
2013-12-24 03:00:00,11.0,9.0,-100.00,WSW,247,6.0,-999.0,88,-99.99,,,-99.99,0.000000,,2013-12-24 08:00:00,
2013-12-24 03:42:00,11.0,9.0,-100.00,WSW,247,6.0,-999.0,88,-99.99,,,-99.99,0.000000,,2013-12-24 08:42:00,
2013-12-24 03:52:00,11.0,9.0,-100.00,WSW,247,6.0,-999.0,88,-99.99,,,-99.99,0.000000,,2013-12-24 08:52:00,
2013-12-24 04:00:00,9.0,6.0,-100.00,SW,225,6.0,-999.0,86,-99.99,,,-99.99,0.000000,,2013-12-24 09:00:00,
2013-12-24 04:43:00,9.0,6.0,-100.00,SW,225,6.0,-999.0,86,-99.99,,,-99.99,0.000000,,2013-12-24 09:43:00,
2013-12-24 04:53:00,9.0,6.0,-100.00,SW,225,6.0,-999.0,86,-99.99,,,-99.99,0.000000,,2013-12-24 09:53:00,
2013-12-24 05:00:00,6.0,3.0,-100.00,SSW,202,6.0,-999.0,86,-99.99,,,-99.99,0.000000,,2013-12-24 10:00:00,
2013-12-24 05:43:00,6.0,3.0,-100.00,SSW,202,6.0,-999.0,86,-99.99,,,-99.99,0.000000,,2013-12-24 10:43:00,
2013-12-24 05:53:00,6.0,3.0,-100.00,SSW,202,6.0,-999.0,86,-99.99,,,-99.99,0.000000,,2013-12-24 10:53:00,
2013-12-24 06:00:00,6.0,3.0,-100.00,SSW,202,6.0,-999.0,86,-99.99,,,-99.99,0.000000,,2013-12-24 11:00:00,
2013-12-24 06:42:00,6.0,3.0,-100.00,SSW,202,6.0,-999.0,86,-99.99,,,-99.99,0.000000,,2013-12-24 11:42:00,
2013-12-24 06:53:00,6.0,3.0,-100.00,SSW,202,6.0,-999.0,86,-99.99,,,-99.99,0.000000,,2013-12-24 11:53:00,
2013-12-24 07:00:00,6.0,3.0,-100.00,SSW,202,4.0,-999.0,87,-99.99,,,-99.99,0.000000,,2013-12-24 12:00:00,
2013-12-24 07:42:00,6.0,3.0,-100.00,SSW,202,4.0,-999.0,87,-99.99,,,-99.99,0.000000,,2013-12-24 12:42:00,
2013-12-24 07:52:00,6.0,3.0,-100.00,SSW,202,4.0,-999.0,87,-99.99,,,-99.99,0.000000,,2013-12-24 12:52:00,
2013-12-24 08:00:00,7.0,4.0,-100.00,SSW,202,4.0,-999.0,87,-99.99,,,-99.99,0.000000,,2013-12-24 13:00:00,
2013-12-24 08:42:00,7.0,4.0,-100.00,SSW,202,4.0,-999.0,87,-99.99,,,-99.99,0.000000,,2013-12-24 13:42:00,
2013-12-24 08:52:00,7.0,4.0,-100.00,SSW,202,4.0,-999.0,87,-99.99,,,-99.99,0.000000,,2013-12-24 13:52:00,
2013-12-24 09:00:00,7.0,4.0,-100.00,SSW,202,4.0,-999.0,87,-99.99,,,-99.99,12.760000,,2013-12-24 14:00:00,
2013-12-24 09:42:00,7.0,4.0,-100.00,SSW,202,4.0,-999.0,87,-99.99,,,-99.99,12.760000,,2013-12-24 14:42:00,
2013-12-24 09:52:00,7.0,4.0,-100.00,SSW,202,4.0,-999.0,87,-99.99,,,-99.99,12.760000,,2013-12-24 14:52:00,
2013-12-24 10:00:00,9.0,6.0,-100.00,SSW,202,4.0,-999.0,88,-99.99,,,-99.99,75.400002,,2013-12-24 15:00:00,
2013-12-24 10:43:00,9.0,6.0,-100.00,SSW,202,4.0,-999.0,88,-99.99,,,-99.99,75.400002,,2013-12-24 15:43:00,
2013-12-24 10:54:00,9.0,6.0,-100.00,SSW,202,4.0,-999.0,88,-99.99,,,-99.99,75.400002,,2013-12-24 15:54:00,
2013-12-24 12:00:00,13.0,10.0,-100.00,SW,225,6.0,-999.0,88,-99.99,,,-99.99,296.959991,,2013-12-24 17:00:00,
2013-12-24 12:42:00,13.0,10.0,-100.00,SW,225,6.0,-999.0,88,-99.99,,,-99.99,296.959991,,2013-12-24 17:42:00,
2013-12-24 12:52:00,13.0,10.0,-100.00,SW,225,6.0,-999.0,88,-99.99,,,-99.99,296.959991,,2013-12-24 17:52:00,
2013-12-24 13:00:00,13.0,10.0,-100.00,SW,225,6.0,-999.0,88,-99.99,,,-99.99,270.279999,,2013-12-24 18:00:00,
2013-12-24 13:42:00,13.0,10.0,-100.00,SW,225,6.0,-999.0,88,-99.99,,,-99.99,270.279999,,2013-12-24 18:42:00,
2013-12-24 13:52:00,13.0,10.0,-100.00,SW,225,6.0,-999.0,88,-99.99,,,-99.99,270.279999,,2013-12-24 18:52:00,
2013-12-24 14:00:00,13.0,10.0,-100.00,SW,225,6.0,-999.0,87,-99.99,,,-99.99,201.839996,,2013-12-24 19:00:00,
2013-12-24 14:42:00,13.0,10.0,-100.00,SW,225,6.0,-999.0,87,-99.99,,,-99.99,201.839996,,2013-12-24 19:42:00,
2013-12-24 14:52:00,13.0,10.0,-100.00,SW,225,6.0,-999.0,87,-99.99,,,-99.99,201.839996,,2013-12-24 19:52:00,
2013-12-24 15:00:00,14.0,10.0,-100.00,SW,225,6.0,-999.0,84,-99.99,,,-99.99,133.399994,,2013-12-24 20:00:00,
2013-12-24 15:42:00,14.0,10.0,-100.00,SW,225,6.0,-999.0,84,-99.99,,,-99.99,133.399994,,2013-12-24 20:42:00,
2013-12-24 15:52:00,14.0,10.0,-100.00,SW,225,6.0,-999.0,84,-99.99,,,-99.99,133.399994,,2013-12-24 20:52:00,
2013-12-24 16:00:00,15.0,8.0,-100.00,SW,225,5.0,-999.0,74,-99.99,,,-99.99,103.239998,,2013-12-24 21:00:00,
2013-12-24 16:43:00,15.0,8.0,-100.00,SW,225,5.0,-999.0,74,-99.99,,,-99.99,103.239998,,2013-12-24 21:43:00,
2013-12-24 16:53:00,15.0,8.0,-100.00,SW,225,5.0,-999.0,74,-99.99,,,-99.99,103.239998,,2013-12-24 21:53:00,
2013-12-24 19:00:00,4.0,1.0,-100.00,SE,135,1.0,-999.0,87,-99.99,,,-99.99,0.000000,,2013-12-25 00:00:00,
2013-12-24 19:42:00,4.0,1.0,-100.00,SE,135,1.0,-999.0,87,-99.99,,,-99.99,0.000000,,2013-12-25 00:42:00,
2013-12-24 19:52:00,4.0,1.0,-100.00,SE,135,1.0,-999.0,87,-99.99,,,-99.99,0.000000,,2013-12-25 00:52:00,
2013-12-24 20:00:00,6.0,4.0,-100.00,SE,135,1.0,-999.0,89,-99.99,,,-99.99,0.000000,,2013-12-25 01:00:00,
2013-12-24 20:42:00,6.0,4.0,-100.00,SE,135,1.0,-999.0,89,-99.99,,,-99.99,0.000000,,2013-12-25 01:42:00,
2013-12-24 20:52:00,6.0,4.0,-100.00,SE,135,1.0,-999.0,89,-99.99,,,-99.99,0.000000,,2013-12-25 01:52:00,
2013-12-24 22:00:00,10.0,7.0,-100.00,SSE,157,2.0,-999.0,86,-99.99,,,-99.99,0.000000,,2013-12-25 03:00:00,
2013-12-24 22:43:00,10.0,7.0,-100.00,SSE,157,2.0,-999.0,86,-99.99,,,-99.99,0.000000,,2013-12-25 03:43:00,
2013-12-24 22:53:00,10.0,7.0,-100.00,SSE,157,2.0,-999.0,86,-99.99,,,-99.99,0.000000,,2013-12-25 03:53:00,